createdAt,value
2022-08-14T00:02:13.730Z,8.33
2022-08-14T00:04:41.929Z,9.07
2022-08-14T00:07:14.146Z,8.23
2022-08-14T00:10:02.457Z,9.33
2022-08-14T00:12:37.787Z,8.20
2022-08-14T00:15:21.756Z,7.93
2022-08-14T00:17:53.645Z,8.00
2022-08-14T00:20:31.191Z,8.97
2022-08-14T00:23:12.120Z,8.67
2022-08-14T00:25:58.746Z,8.37
2022-08-14T00:28:36.902Z,8.70
2022-08-14T00:31:09.737Z,8.60
2022-08-14T00:33:52.186Z,8.37
2022-08-14T00:36:37.543Z,8.53
2022-08-14T00:39:18.155Z,8.27
2022-08-14T00:41:45.959Z,8.37
2022-08-14T00:44:12.612Z,8.53
2022-08-14T00:46:41.042Z,8.30
2022-08-14T00:49:11.576Z,8.00
2022-08-14T00:51:44.205Z,8.10
2022-08-14T00:54:21.197Z,8.73
2022-08-14T00:57:05.340Z,8.97
2022-08-14T00:59:32.160Z,8.20
2022-08-14T01:02:00.626Z,8.70
2022-08-14T01:04:51.578Z,8.37
2022-08-14T01:07:21.883Z,8.20
2022-08-14T01:09:54.565Z,8.93
2022-08-14T01:12:27.158Z,8.20
2022-08-14T01:14:58.485Z,8.60
2022-08-14T01:17:49.582Z,9.40
2022-08-14T01:20:40.678Z,9.63
2022-08-14T01:23:15.670Z,9.53
2022-08-14T01:25:45.965Z,9.80
2022-08-14T01:28:34.448Z,9.30
2022-08-14T01:31:15.701Z,9.77
2022-08-14T01:33:59.880Z,9.47
2022-08-14T01:36:42.353Z,9.90
2022-08-14T01:39:15.440Z,9.20
2022-08-14T01:41:50.032Z,9.83
2022-08-14T01:44:31.237Z,9.40
2022-08-14T01:47:12.155Z,9.00
2022-08-14T01:49:46.015Z,9.70
2022-08-14T01:52:34.096Z,9.63
2022-08-14T01:55:16.827Z,9.70
2022-08-14T01:58:00.653Z,9.20
2022-08-14T02:00:38.823Z,9.77
2022-08-14T02:03:06.839Z,8.80
2022-08-14T02:05:38.550Z,9.97
2022-08-14T02:08:10.481Z,9.77
2022-08-14T02:10:46.021Z,10.40
2022-08-14T02:13:13.962Z,10.77
2022-08-14T02:15:43.854Z,10.00
2022-08-14T02:18:11.804Z,10.10
2022-08-14T02:20:42.220Z,11.20
2022-08-14T02:23:09.381Z,10.77
2022-08-14T02:25:39.460Z,12.03
2022-08-14T02:28:22.114Z,11.90
2022-08-14T02:30:52.977Z,11.63
2022-08-14T02:33:20.600Z,11.93
2022-08-14T02:36:04.915Z,11.87
2022-08-14T02:38:42.252Z,11.37
2022-08-14T02:41:13.127Z,11.07
2022-08-14T02:43:46.349Z,11.07
2022-08-14T02:46:20.371Z,10.93
2022-08-14T02:49:04.770Z,10.30
2022-08-14T02:51:36.412Z,10.73
2022-08-14T02:54:05.271Z,11.30
2022-08-14T02:57:13.815Z,9.60
2022-08-14T02:59:33.501Z,9.20
2022-08-14T03:02:49.085Z,10.20
2022-08-14T03:04:57.872Z,9.90
2022-08-14T03:07:25.921Z,9.80
2022-08-14T03:10:28.068Z,9.80
2022-08-14T03:12:47.818Z,9.53
2022-08-14T03:15:22.166Z,9.90
2022-08-14T03:17:57.470Z,9.30
2022-08-14T03:20:29.018Z,9.17
2022-08-14T03:23:03.199Z,9.83
2022-08-14T03:25:33.419Z,9.80
2022-08-14T03:28:07.046Z,10.00
2022-08-14T03:30:39.714Z,9.80
2022-08-14T03:33:10.415Z,10.03
2022-08-14T03:35:39.732Z,10.00
2022-08-14T03:39:16.102Z,10.80
2022-08-14T03:40:56.833Z,10.20
2022-08-14T03:43:28.362Z,9.73
2022-08-14T03:46:00.411Z,9.90
2022-08-14T03:48:31.287Z,10.73
2022-08-14T03:51:09.159Z,9.20
2022-08-14T03:53:41.878Z,10.03
2022-08-14T03:56:18.064Z,10.03
2022-08-14T03:58:52.747Z,10.67
2022-08-14T04:01:21.455Z,10.20
2022-08-14T04:03:49.553Z,10.60
2022-08-14T04:06:22.102Z,11.10
2022-08-14T04:08:55.194Z,11.70
2022-08-14T04:11:24.985Z,11.53
2022-08-14T04:13:52.211Z,11.73
2022-08-14T04:16:21.155Z,11.30
2022-08-14T04:18:52.890Z,11.63
2022-08-14T04:21:24.486Z,12.37
2022-08-14T04:23:57.255Z,12.23
2022-08-14T04:26:42.854Z,11.40
2022-08-14T04:29:15.149Z,12.23
2022-08-14T04:33:00.980Z,12.00
2022-08-14T04:34:33.987Z,11.63
2022-08-14T04:37:24.584Z,11.97
2022-08-14T04:40:11.375Z,10.83
2022-08-14T04:42:56.755Z,10.03
2022-08-14T04:45:25.086Z,10.70
2022-08-14T04:48:12.698Z,10.50
2022-08-14T04:50:53.947Z,9.13
2022-08-14T04:53:34.899Z,9.07
2022-08-14T04:56:33.861Z,9.63
2022-08-14T04:58:57.966Z,9.10
2022-08-14T05:01:28.242Z,8.63
2022-08-14T05:03:55.991Z,9.27
2022-08-14T05:06:39.103Z,9.10
2022-08-14T05:09:16.336Z,9.40
2022-08-14T05:11:44.596Z,8.80
2022-08-14T05:14:33.724Z,8.10
2022-08-14T05:17:02.235Z,9.23
2022-08-14T05:19:32.468Z,8.40
2022-08-14T05:22:17.099Z,8.83
2022-08-14T05:24:51.994Z,8.90
2022-08-14T05:27:22.249Z,9.00
2022-08-14T05:29:50.892Z,9.37
2022-08-14T05:32:17.853Z,8.40
2022-08-14T05:34:45.572Z,8.07
2022-08-14T05:37:15.697Z,9.43
2022-08-14T05:39:43.410Z,8.00
2022-08-14T05:42:21.603Z,8.43
2022-08-14T05:44:49.390Z,7.87
2022-08-14T05:47:18.579Z,8.03
2022-08-14T05:49:46.021Z,8.63
2022-08-14T05:52:18.198Z,8.47
2022-08-14T05:54:45.032Z,8.50
2022-08-14T05:57:11.661Z,7.43
2022-08-14T05:59:38.935Z,8.10
2022-08-14T06:02:11.193Z,7.60
2022-08-14T06:04:39.476Z,8.60
2022-08-14T06:07:06.826Z,8.23
2022-08-14T06:09:35.473Z,8.20
2022-08-14T06:12:08.693Z,8.20
2022-08-14T06:14:36.577Z,7.57
2022-08-14T06:17:04.481Z,7.73
2022-08-14T06:19:37.074Z,8.27
2022-08-14T06:22:04.145Z,8.20
2022-08-14T06:24:34.964Z,8.30
2022-08-14T06:27:10.035Z,8.27
2022-08-14T06:29:38.323Z,8.60
2022-08-14T06:32:38.573Z,8.50
2022-08-14T06:35:02.225Z,8.67
2022-08-14T06:37:54.221Z,9.30
2022-08-14T06:40:29.744Z,8.50
2022-08-14T06:43:06.897Z,8.50
2022-08-14T06:45:36.217Z,7.90
2022-08-14T06:48:06.026Z,8.83
2022-08-14T06:50:47.515Z,8.07
2022-08-14T06:53:16.430Z,9.07
2022-08-14T06:55:57.855Z,8.70
2022-08-14T06:58:29.414Z,9.00
2022-08-14T07:01:26.829Z,8.50
2022-08-14T07:04:23.212Z,8.80
2022-08-14T07:07:02.731Z,9.20
2022-08-14T07:09:43.691Z,10.00
2022-08-14T07:12:54.420Z,8.87
2022-08-14T07:15:06.403Z,9.00
2022-08-14T07:17:34.389Z,9.47
2022-08-14T07:20:07.329Z,9.40
2022-08-14T07:22:56.134Z,9.43
2022-08-14T07:25:21.180Z,9.60
2022-08-14T07:27:47.964Z,9.03
2022-08-14T07:30:33.745Z,9.40
2022-08-14T07:33:05.054Z,9.33
2022-08-14T07:35:37.510Z,9.37
2022-08-14T07:38:21.836Z,9.07
2022-08-14T07:40:56.885Z,9.73
2022-08-14T07:43:24.898Z,9.20
2022-08-14T07:45:54.009Z,9.37
2022-08-14T07:48:26.549Z,8.50
2022-08-14T07:50:57.222Z,9.10
2022-08-14T07:54:04.681Z,8.83
2022-08-14T07:56:46.592Z,10.10
2022-08-14T07:59:20.968Z,9.43
2022-08-14T08:02:17.385Z,9.40
2022-08-14T08:04:58.996Z,10.07
2022-08-14T08:07:33.093Z,10.20
2022-08-14T08:10:02.329Z,10.27
2022-08-14T08:12:30.927Z,9.87
2022-08-14T08:15:07.404Z,9.50
2022-08-14T08:17:42.492Z,9.60
2022-08-14T08:20:26.285Z,9.90
2022-08-14T08:23:00.545Z,10.00
2022-08-14T08:25:39.727Z,9.10
2022-08-14T08:28:21.872Z,9.90
2022-08-14T08:30:56.832Z,10.00
2022-08-14T08:33:37.117Z,10.70
2022-08-14T08:36:07.942Z,9.90
2022-08-14T08:39:16.369Z,9.73
2022-08-14T08:41:21.723Z,10.30
2022-08-14T08:43:48.625Z,9.40
2022-08-14T08:46:23.465Z,9.70
2022-08-14T08:51:36.064Z,10.23
2022-08-14T08:54:18.139Z,10.60
2022-08-14T08:56:52.052Z,10.30
2022-08-14T08:59:33.974Z,10.27
2022-08-14T09:02:07.245Z,10.20
2022-08-14T09:04:45.873Z,10.83
2022-08-14T09:07:27.323Z,10.07
2022-08-14T09:09:58.966Z,10.00
2022-08-14T09:12:32.391Z,10.30
2022-08-14T09:15:12.138Z,9.87
2022-08-14T09:17:41.446Z,10.27
2022-08-14T09:20:11.648Z,9.77
2022-08-14T09:22:50.309Z,10.10
2022-08-14T09:26:00.745Z,9.73
2022-08-14T09:28:12.752Z,9.80
2022-08-14T09:30:46.720Z,9.63
2022-08-14T09:33:31.807Z,9.60
2022-08-14T09:36:37.288Z,9.90
2022-08-14T09:39:28.399Z,8.83
2022-08-14T09:42:20.246Z,9.60
2022-08-14T09:45:08.790Z,9.70
2022-08-14T09:47:57.329Z,10.07
2022-08-14T09:50:30.175Z,9.30
2022-08-14T09:53:05.820Z,9.07
2022-08-14T09:55:45.343Z,9.30
2022-08-14T09:58:22.869Z,9.07
2022-08-14T10:01:00.692Z,9.30
2022-08-14T10:03:34.750Z,9.80
2022-08-14T10:06:08.904Z,11.00
2022-08-14T10:08:50.614Z,9.80
2022-08-14T10:11:35.942Z,9.97
2022-08-14T10:14:29.493Z,9.73
2022-08-14T10:17:05.256Z,9.87
2022-08-14T10:19:35.654Z,9.63
2022-08-14T10:23:21.945Z,9.80
2022-08-14T10:24:59.849Z,9.67
2022-08-14T10:27:28.026Z,9.57
2022-08-14T10:29:59.902Z,9.60
2022-08-14T10:32:36.211Z,9.13
2022-08-14T10:35:10.947Z,9.30
2022-08-14T10:37:51.689Z,9.33
2022-08-14T10:40:37.810Z,9.77
2022-08-14T10:43:23.016Z,9.67
2022-08-14T10:46:03.627Z,9.33
2022-08-14T10:49:04.339Z,9.53
2022-08-14T10:51:36.235Z,8.90
2022-08-14T10:54:17.088Z,9.50
2022-08-14T10:56:55.884Z,9.70
2022-08-14T10:59:34.937Z,9.50
2022-08-14T11:02:03.918Z,9.13
2022-08-14T11:04:32.024Z,9.00
2022-08-14T11:07:00.280Z,8.60
2022-08-14T11:09:31.845Z,8.67
2022-08-14T11:12:35.051Z,8.20
2022-08-14T11:14:58.839Z,9.47
2022-08-14T11:17:28.639Z,8.90
2022-08-14T11:20:01.465Z,8.57
2022-08-14T11:22:52.791Z,8.80
2022-08-14T11:25:18.560Z,8.23
2022-08-14T11:27:53.954Z,8.67
2022-08-14T11:30:50.639Z,7.90
2022-08-14T11:33:23.442Z,8.10
2022-08-14T11:35:50.156Z,7.90
2022-08-14T11:38:18.098Z,8.10
2022-08-14T11:40:47.129Z,7.97
2022-08-14T11:43:15.132Z,7.73
2022-08-14T11:45:47.919Z,8.13
2022-08-14T11:49:03.373Z,7.00
2022-08-14T11:51:26.139Z,7.40
2022-08-14T11:54:02.326Z,7.73
2022-08-14T11:56:36.198Z,7.30
2022-08-14T11:59:02.912Z,7.87
2022-08-14T12:01:33.332Z,7.53
2022-08-14T12:04:31.748Z,8.40
2022-08-14T12:07:00.823Z,7.30
2022-08-14T12:09:38.730Z,7.90
2022-08-14T12:12:35.286Z,8.00
2022-08-14T12:15:04.390Z,8.40
2022-08-14T12:17:47.354Z,8.23
2022-08-14T12:20:16.028Z,8.57
2022-08-14T12:22:57.370Z,7.77
2022-08-14T12:25:24.784Z,7.90
2022-08-14T12:27:54.705Z,7.53
2022-08-14T12:30:43.903Z,7.33
2022-08-14T12:33:33.228Z,7.43
2022-08-14T12:36:04.098Z,7.60
2022-08-14T12:38:44.976Z,7.70
2022-08-14T12:41:20.254Z,7.90
2022-08-14T12:44:01.876Z,7.10
2022-08-14T12:46:35.227Z,7.20
2022-08-14T12:49:09.604Z,7.13
2022-08-14T12:51:37.813Z,7.07
2022-08-14T12:54:19.406Z,7.40
2022-08-14T12:57:19.765Z,7.67
2022-08-14T12:59:47.612Z,7.23
2022-08-14T13:02:25.282Z,7.07
2022-08-14T13:04:54.137Z,7.60
2022-08-14T13:07:20.877Z,6.80
2022-08-14T13:09:55.175Z,6.60
2022-08-14T13:12:32.165Z,6.70
2022-08-14T13:15:09.009Z,7.27
2022-08-14T13:17:43.966Z,6.30
2022-08-14T13:20:24.579Z,6.30
2022-08-14T13:22:53.100Z,7.37
2022-08-14T13:25:24.567Z,6.40
2022-08-14T13:27:59.100Z,6.37
2022-08-14T13:30:27.371Z,6.97
2022-08-14T13:32:58.040Z,7.17
2022-08-14T13:35:25.748Z,7.00
2022-08-14T13:37:54.003Z,7.30
2022-08-14T13:40:25.981Z,6.87
2022-08-14T13:42:56.727Z,7.70
2022-08-14T13:45:24.178Z,7.10
2022-08-14T13:48:01.385Z,7.57
2022-08-14T13:50:28.054Z,7.37
2022-08-14T13:52:57.288Z,7.30
2022-08-14T13:55:29.931Z,7.93
2022-08-14T13:58:04.496Z,8.10
2022-08-14T14:00:51.773Z,8.23
2022-08-14T14:03:22.369Z,7.60
2022-08-14T14:05:54.863Z,7.30
2022-08-14T14:08:43.491Z,7.70
2022-08-14T14:11:10.588Z,7.20
2022-08-14T14:13:44.775Z,7.53
2022-08-14T14:16:15.332Z,7.60
2022-08-14T14:18:55.760Z,7.93
2022-08-14T14:21:24.503Z,8.23
2022-08-14T14:23:56.247Z,6.80
2022-08-14T14:26:24.668Z,7.07
2022-08-14T14:28:55.328Z,7.50
2022-08-14T14:31:29.921Z,7.70
2022-08-14T14:33:59.906Z,8.10
2022-08-14T14:36:29.127Z,7.20
2022-08-14T14:38:58.053Z,7.23
2022-08-14T14:41:27.182Z,7.60
2022-08-14T14:44:06.661Z,6.70
2022-08-14T14:46:38.399Z,6.80
2022-08-14T14:49:14.238Z,7.07
2022-08-14T14:51:46.672Z,7.20
2022-08-14T14:54:19.521Z,7.03
2022-08-14T14:56:59.825Z,7.37
2022-08-14T14:59:27.226Z,7.47
2022-08-14T15:02:00.376Z,6.60
2022-08-14T15:04:27.082Z,6.70
2022-08-14T15:06:54.045Z,6.83
2022-08-14T15:09:23.803Z,6.83
2022-08-14T15:11:50.821Z,6.20
2022-08-14T15:14:56.202Z,6.50
2022-08-14T15:17:06.441Z,7.20
2022-08-14T15:19:33.415Z,6.87
2022-08-14T15:22:00.339Z,6.70
2022-08-14T15:24:27.298Z,6.77
2022-08-14T15:26:58.479Z,7.00
2022-08-14T15:29:30.359Z,6.87
2022-08-14T15:31:58.342Z,6.67
2022-08-14T15:34:45.498Z,6.60
2022-08-14T15:37:16.803Z,6.93
2022-08-14T15:39:44.294Z,6.77
2022-08-14T15:42:16.220Z,6.57
2022-08-14T15:44:58.512Z,7.60
2022-08-14T15:47:30.813Z,6.87
2022-08-14T15:50:05.582Z,6.87
2022-08-14T15:52:37.143Z,7.10
2022-08-14T15:55:08.996Z,7.20
2022-08-14T15:57:38.179Z,6.80
2022-08-14T16:00:40.656Z,6.87
2022-08-14T16:03:15.847Z,6.90
2022-08-14T16:05:43.997Z,6.87
2022-08-14T16:08:27.380Z,7.13
2022-08-14T16:11:01.924Z,7.07
2022-08-14T16:13:39.344Z,7.47
2022-08-14T16:16:34.769Z,6.70
2022-08-14T16:19:09.993Z,6.90
2022-08-14T16:21:39.988Z,6.80
2022-08-14T16:24:27.688Z,6.70
2022-08-14T16:27:00.564Z,6.63
2022-08-14T16:29:30.239Z,6.60
2022-08-14T16:32:01.572Z,7.53
2022-08-14T16:37:18.511Z,7.37
2022-08-14T16:39:46.864Z,7.07
2022-08-14T16:40:25.408Z,6.80
2022-08-14T16:43:02.232Z,7.10
2022-08-14T16:45:02.655Z,6.57
2022-08-14T16:47:32.155Z,6.70
2022-08-14T16:50:08.445Z,6.87
2022-08-14T16:52:44.305Z,7.13
2022-08-14T16:55:13.984Z,7.20
2022-08-14T16:57:52.073Z,6.80
2022-08-14T17:00:43.493Z,7.00
2022-08-14T17:03:12.308Z,6.70
2022-08-14T17:05:43.265Z,7.20
2022-08-14T17:08:33.330Z,7.50
2022-08-14T17:11:10.880Z,7.37
2022-08-14T17:13:58.121Z,7.00
2022-08-14T17:16:38.293Z,6.97
2022-08-14T17:19:13.780Z,7.30
2022-08-14T17:21:47.546Z,7.13
2022-08-14T17:24:57.594Z,7.57
2022-08-14T17:27:05.038Z,6.90
2022-08-14T17:29:56.747Z,6.80
2022-08-14T17:32:29.740Z,7.27
2022-08-14T17:35:16.409Z,6.33
2022-08-14T17:37:55.449Z,6.90
2022-08-14T17:40:25.954Z,7.70
2022-08-14T17:43:02.229Z,7.40
2022-08-14T17:45:41.685Z,7.57
2022-08-14T17:49:10.031Z,6.70
2022-08-14T17:51:23.742Z,7.70
2022-08-14T17:54:01.236Z,7.23
2022-08-14T17:56:38.744Z,8.07
2022-08-14T17:59:06.955Z,7.37
2022-08-14T18:01:45.909Z,7.57
2022-08-14T18:04:27.874Z,7.50
2022-08-14T18:07:08.645Z,7.47
2022-08-14T18:09:56.219Z,7.60
2022-08-14T18:12:36.847Z,7.60
2022-08-14T18:15:14.382Z,7.97
2022-08-14T18:17:44.944Z,7.40
2022-08-14T18:21:41.265Z,7.53
2022-08-14T18:23:10.504Z,8.30
2022-08-14T18:25:52.347Z,7.90
2022-08-14T18:28:51.655Z,7.77
2022-08-14T18:31:23.300Z,8.17
2022-08-14T18:34:31.774Z,7.97
2022-08-14T18:37:18.338Z,7.33
2022-08-14T18:40:01.830Z,7.90
2022-08-14T18:42:33.320Z,7.73
2022-08-14T18:45:01.929Z,7.60
2022-08-14T18:48:03.304Z,7.63
2022-08-14T18:50:26.857Z,7.83
2022-08-14T18:53:06.965Z,8.30
2022-08-14T18:55:33.696Z,7.97
2022-08-14T18:58:00.953Z,8.40
2022-08-14T19:00:32.048Z,7.50
2022-08-14T19:03:01.140Z,8.17
2022-08-14T19:05:37.858Z,8.37
2022-08-14T19:08:27.132Z,7.70
2022-08-14T19:10:59.473Z,7.90
2022-08-14T19:13:48.685Z,7.70
2022-08-14T19:16:22.914Z,8.50
2022-08-14T19:19:01.319Z,7.50
2022-08-14T19:21:29.893Z,8.10
2022-08-14T19:24:30.261Z,8.10
2022-08-14T19:27:19.256Z,8.00
2022-08-14T19:29:51.751Z,7.90
2022-08-14T19:32:41.620Z,8.10
2022-08-14T19:35:18.532Z,8.00
2022-08-14T19:37:53.883Z,9.00
2022-08-14T19:40:38.482Z,7.80
2022-08-14T19:43:06.719Z,8.43
2022-08-14T19:45:36.900Z,7.90
2022-08-14T19:48:04.830Z,7.50
2022-08-14T19:50:40.792Z,7.80
2022-08-14T19:53:12.074Z,7.70
2022-08-14T19:55:47.241Z,7.87
2022-08-14T19:58:15.318Z,8.40
2022-08-14T20:00:52.471Z,8.00
2022-08-14T20:03:23.825Z,7.87
2022-08-14T20:06:03.178Z,7.60
2022-08-14T20:09:06.032Z,8.00
2022-08-14T20:12:00.406Z,8.07
2022-08-14T20:14:20.388Z,8.17
2022-08-14T20:16:52.300Z,8.30
2022-08-14T20:19:29.035Z,8.50
2022-08-14T20:22:04.772Z,8.10
2022-08-14T20:24:43.986Z,8.93
2022-08-14T20:27:23.425Z,8.03
2022-08-14T20:30:29.553Z,8.23
2022-08-14T20:33:07.844Z,8.40
2022-08-14T20:35:41.660Z,8.67
2022-08-14T20:38:28.999Z,9.00
2022-08-14T20:41:00.325Z,8.53
2022-08-14T20:43:47.657Z,8.20
2022-08-14T20:46:23.550Z,8.30
2022-08-14T20:49:06.407Z,8.40
2022-08-14T20:51:43.345Z,8.33
2022-08-14T20:54:21.126Z,8.70
2022-08-14T20:57:10.081Z,8.20
2022-08-14T20:59:43.533Z,8.77
2022-08-14T21:02:34.568Z,9.10
2022-08-14T21:05:16.324Z,8.73
2022-08-14T21:07:44.484Z,8.30
2022-08-14T21:10:33.549Z,9.10
2022-08-14T21:14:08.815Z,9.03
2022-08-14T21:15:57.859Z,8.77
2022-08-14T21:18:34.562Z,8.90
2022-08-14T21:21:07.703Z,8.43
2022-08-14T21:23:54.058Z,8.50
2022-08-14T21:26:51.403Z,8.17
2022-08-14T21:29:11.425Z,8.47
2022-08-14T21:31:39.042Z,9.00
2022-08-14T21:34:31.626Z,9.03
2022-08-14T21:36:58.599Z,8.50
2022-08-14T21:39:25.335Z,8.80
2022-08-14T21:41:58.491Z,8.43
2022-08-14T21:44:42.896Z,8.37
2022-08-14T21:47:16.120Z,8.83
2022-08-14T21:49:46.127Z,8.13
2022-08-14T21:52:52.167Z,8.27
2022-08-14T21:55:12.202Z,8.30
2022-08-14T21:57:56.323Z,8.30
2022-08-14T22:00:42.004Z,7.77
2022-08-14T22:03:17.130Z,7.20
2022-08-14T22:05:49.611Z,6.90
2022-08-14T22:08:16.829Z,6.80
2022-08-14T22:10:47.886Z,7.40
2022-08-14T22:13:20.865Z,7.50
2022-08-14T22:15:49.764Z,6.90
2022-08-14T22:18:20.575Z,7.17
2022-08-14T22:20:53.510Z,6.60
2022-08-14T22:23:21.630Z,7.27
2022-08-14T22:25:50.141Z,7.13
2022-08-14T22:28:21.266Z,7.20
2022-08-14T22:30:55.154Z,7.50
2022-08-14T22:33:26.614Z,6.80
2022-08-14T22:35:58.995Z,7.07
2022-08-14T22:38:35.850Z,7.63
2022-08-14T22:41:27.540Z,7.20
2022-08-14T22:43:54.738Z,7.27
2022-08-14T22:46:22.127Z,7.20
2022-08-14T22:48:51.239Z,7.60
2022-08-14T22:51:20.557Z,7.43
2022-08-14T22:53:48.701Z,7.50
2022-08-14T22:56:20.319Z,7.70
2022-08-14T22:58:53.800Z,7.40
2022-08-14T23:01:56.293Z,7.87
2022-08-14T23:04:35.930Z,7.30
2022-08-14T23:07:22.261Z,6.90
2022-08-14T23:10:32.999Z,7.10
2022-08-14T23:12:54.759Z,6.70
2022-08-14T23:15:23.937Z,5.60
2022-08-14T23:17:51.274Z,5.83
2022-08-14T23:20:21.294Z,6.23
2022-08-14T23:22:51.642Z,6.07
2022-08-14T23:25:56.973Z,6.40
2022-08-14T23:28:33.633Z,7.00
2022-08-14T23:30:55.471Z,7.00
2022-08-14T23:33:22.248Z,8.23
2022-08-14T23:35:59.039Z,7.60
2022-08-14T23:38:30.830Z,7.70
2022-08-14T23:41:00.643Z,7.30
2022-08-14T23:43:31.285Z,7.53
2022-08-14T23:45:58.924Z,7.37
2022-08-14T23:48:28.413Z,7.40
2022-08-14T23:50:55.760Z,6.30
2022-08-14T23:53:47.653Z,7.57
2022-08-14T23:56:19.878Z,7.90
2022-08-14T23:58:59.509Z,7.53
